createdAt,value
2023-02-23T00:00:28.488Z,13.47
2023-02-23T00:05:35.375Z,13.00
2023-02-23T00:10:38.372Z,6.57
2023-02-23T00:15:40.982Z,13.83
2023-02-23T00:20:48.056Z,11.73
2023-02-23T00:25:50.608Z,11.50
2023-02-23T00:30:53.074Z,10.07
2023-02-23T00:35:55.652Z,9.93
2023-02-23T00:40:58.273Z,9.17
2023-02-23T00:46:05.546Z,6.47
2023-02-23T00:51:08.011Z,9.43
2023-02-23T00:56:14.492Z,11.93
2023-02-23T01:01:18.401Z,13.17
2023-02-23T01:06:21.803Z,9.37
2023-02-23T01:11:33.657Z,15.83
2023-02-23T01:16:37.074Z,11.33
2023-02-23T01:21:42.543Z,13.27
2023-02-23T01:26:45.682Z,6.73
2023-02-23T01:31:51.320Z,16.23
2023-02-23T01:36:54.229Z,13.37
2023-02-23T01:41:56.701Z,16.43
2023-02-23T01:46:59.272Z,9.77
2023-02-23T01:52:07.464Z,12.73
2023-02-23T01:57:14.657Z,14.10
2023-02-23T02:02:23.688Z,10.37
2023-02-23T02:07:29.944Z,9.00
2023-02-23T02:12:33.095Z,11.60
2023-02-23T02:17:54.399Z,9.20
2023-02-23T02:23:17.944Z,9.90
2023-02-23T02:28:42.366Z,8.93
2023-02-23T02:34:00.318Z,12.03
2023-02-23T02:39:22.892Z,14.57
2023-02-23T02:44:44.160Z,12.37
2023-02-23T02:50:12.745Z,8.10
2023-02-23T02:55:23.899Z,16.47
2023-02-23T03:00:55.295Z,15.43
2023-02-23T03:06:17.151Z,11.33
2023-02-23T03:11:38.237Z,11.40
2023-02-23T03:17:38.513Z,15.23
2023-02-23T03:23:12.358Z,17.30
2023-02-23T03:28:39.935Z,13.03
2023-02-23T03:34:14.020Z,14.03
2023-02-23T03:39:55.416Z,13.20
2023-02-23T03:45:20.965Z,10.87
2023-02-23T03:50:49.624Z,14.43
2023-02-23T03:56:15.201Z,12.87
2023-02-23T04:01:38.488Z,12.57
2023-02-23T04:07:03.284Z,11.37
2023-02-23T04:12:52.142Z,12.97
2023-02-23T04:17:54.903Z,10.67
2023-02-23T04:22:57.441Z,15.17
2023-02-23T04:28:00.075Z,15.33
2023-02-23T04:33:02.709Z,10.80
2023-02-23T04:38:05.632Z,11.40
2023-02-23T04:43:09.533Z,12.57
2023-02-23T04:48:12.243Z,7.17
2023-02-23T04:53:14.857Z,11.73
2023-02-23T04:58:17.400Z,10.17
2023-02-23T05:03:19.831Z,15.87
2023-02-23T05:08:22.234Z,15.90
2023-02-23T05:13:25.016Z,11.07
2023-02-23T05:18:30.674Z,10.97
2023-02-23T05:23:35.106Z,13.33
2023-02-23T05:28:39.834Z,14.60
2023-02-23T05:33:42.763Z,12.73
2023-02-23T05:38:46.819Z,13.03
2023-02-23T05:43:52.426Z,8.23
2023-02-23T05:49:00.881Z,13.23
2023-02-23T05:54:03.525Z,12.47
2023-02-23T05:59:06.118Z,9.67
2023-02-23T06:04:08.995Z,11.47
2023-02-23T06:09:11.715Z,15.07
2023-02-23T06:14:16.503Z,7.30
2023-02-23T06:19:19.074Z,17.23
2023-02-23T06:24:21.663Z,19.87
2023-02-23T06:29:24.398Z,18.73
2023-02-23T06:34:27.053Z,19.90
2023-02-23T06:39:29.712Z,20.57
2023-02-23T06:44:35.386Z,18.97
2023-02-23T06:49:38.141Z,14.17
2023-02-23T06:54:41.945Z,19.27
2023-02-23T06:59:44.784Z,17.40
2023-02-23T07:04:47.515Z,21.40
2023-02-23T07:09:50.063Z,19.93
2023-02-23T07:14:52.845Z,20.73
2023-02-23T07:19:55.637Z,16.37
2023-02-23T07:24:58.148Z,17.00
2023-02-23T07:30:00.799Z,20.17
2023-02-23T07:35:04.723Z,12.33
2023-02-23T07:40:08.080Z,17.47
2023-02-23T07:45:11.343Z,16.87
2023-02-23T07:50:14.607Z,16.80
2023-02-23T07:55:17.380Z,19.10
2023-02-23T08:00:20.226Z,15.27
2023-02-23T08:05:24.372Z,19.13
2023-02-23T08:10:28.109Z,19.57
2023-02-23T08:15:31.777Z,15.57
2023-02-23T08:20:34.380Z,17.50
2023-02-23T08:25:37.024Z,20.40
2023-02-23T08:30:41.495Z,19.93
2023-02-23T08:35:45.171Z,23.37
2023-02-23T08:40:47.788Z,23.07
2023-02-23T08:45:50.300Z,31.23
2023-02-23T08:50:57.667Z,29.23
2023-02-23T08:56:02.295Z,24.50
2023-02-23T09:01:05.622Z,23.70
2023-02-23T09:06:14.079Z,22.03
2023-02-23T09:11:17.070Z,26.00
2023-02-23T09:16:19.790Z,29.43
2023-02-23T09:21:25.423Z,28.23
2023-02-23T09:26:29.422Z,24.20
2023-02-23T09:31:31.926Z,22.63
2023-02-23T09:36:34.623Z,20.47
2023-02-23T09:42:01.494Z,22.33
2023-02-23T09:47:18.935Z,15.03
2023-02-23T09:52:39.401Z,26.97
2023-02-23T09:57:48.722Z,27.23
2023-02-23T10:03:28.284Z,20.40
2023-02-23T10:08:39.919Z,27.57
2023-02-23T10:13:58.554Z,24.30
2023-02-23T10:19:27.372Z,29.30
2023-02-23T10:24:32.990Z,20.83
2023-02-23T10:29:43.138Z,23.33
2023-02-23T10:34:48.434Z,28.00
2023-02-23T10:39:52.427Z,29.20
2023-02-23T10:44:55.613Z,28.50
2023-02-23T10:49:59.064Z,20.03
2023-02-23T10:55:06.518Z,30.13
2023-02-23T11:00:12.704Z,25.77
2023-02-23T11:05:43.063Z,30.50
2023-02-23T11:10:58.665Z,17.80
2023-02-23T11:16:10.336Z,28.80
2023-02-23T11:21:18.629Z,17.93
2023-02-23T11:26:33.387Z,28.00
2023-02-23T11:31:37.037Z,20.13
2023-02-23T11:36:39.701Z,28.23
2023-02-23T11:41:42.585Z,29.30
2023-02-23T11:46:46.759Z,19.30
2023-02-23T11:51:52.391Z,29.57
2023-02-23T11:56:57.589Z,30.70
2023-02-23T12:02:25.732Z,27.53
2023-02-23T12:07:34.944Z,22.50
2023-02-23T12:13:02.237Z,24.63
2023-02-23T12:18:20.809Z,22.87
2023-02-23T12:23:29.993Z,31.10
2023-02-23T12:29:04.201Z,35.53
2023-02-23T12:34:28.744Z,27.10
2023-02-23T12:39:44.024Z,33.53
2023-02-23T12:44:53.742Z,29.17
2023-02-23T12:50:13.179Z,34.17
2023-02-23T12:55:19.451Z,29.23
2023-02-23T13:00:58.344Z,24.70
2023-02-23T13:06:31.596Z,32.23
2023-02-23T13:11:52.010Z,31.97
2023-02-23T13:17:05.722Z,28.60
2023-02-23T13:22:22.735Z,29.33
2023-02-23T13:27:35.807Z,23.37
2023-02-23T13:32:39.625Z,29.50
2023-02-23T13:37:54.552Z,30.37
2023-02-23T13:43:17.606Z,25.93
2023-02-23T13:48:55.905Z,33.03
2023-02-23T13:54:16.444Z,34.17
2023-02-23T13:59:31.321Z,26.37
2023-02-23T14:04:42.523Z,35.87
2023-02-23T14:09:53.626Z,24.20
2023-02-23T14:14:56.137Z,20.63
2023-02-23T14:20:06.811Z,25.90
2023-02-23T14:25:34.497Z,36.97
2023-02-23T14:30:51.291Z,31.73
2023-02-23T14:35:54.814Z,35.50
2023-02-23T14:40:57.576Z,39.73
2023-02-23T14:46:05.982Z,37.37
2023-02-23T14:51:34.443Z,37.93
2023-02-23T14:56:47.200Z,43.47
2023-02-23T15:01:51.428Z,43.37
2023-02-23T15:07:00.627Z,34.03
2023-02-23T15:12:18.143Z,37.73
2023-02-23T15:17:24.132Z,42.77
2023-02-23T15:22:29.448Z,39.53
2023-02-23T15:27:43.083Z,37.07
2023-02-23T15:32:46.068Z,35.43
2023-02-23T15:37:59.474Z,35.17
2023-02-23T15:43:13.210Z,38.00
2023-02-23T15:48:20.935Z,39.13
2023-02-23T15:53:27.506Z,33.60
2023-02-23T15:58:41.827Z,36.20
2023-02-23T16:04:18.990Z,42.20
2023-02-23T16:09:22.173Z,43.30
2023-02-23T16:14:26.359Z,42.87
2023-02-23T16:19:29.652Z,39.67
2023-02-23T16:24:32.180Z,37.20
2023-02-23T16:29:41.646Z,45.23
2023-02-23T16:35:18.252Z,28.33
2023-02-23T16:40:21.178Z,35.07
2023-02-23T16:45:23.719Z,27.43
2023-02-23T16:50:26.259Z,37.53
2023-02-23T16:55:29.993Z,37.37
2023-02-23T17:00:33.502Z,36.13
2023-02-23T17:05:36.165Z,45.60
2023-02-23T17:10:41.384Z,42.83
2023-02-23T17:15:50.576Z,43.60
2023-02-23T17:20:54.435Z,48.50
2023-02-23T17:25:57.653Z,41.47
2023-02-23T17:31:01.693Z,47.50
2023-02-23T17:36:06.894Z,50.43
2023-02-23T17:41:15.547Z,57.20
2023-02-23T17:46:19.091Z,54.30
2023-02-23T17:51:22.079Z,53.63
2023-02-23T17:56:24.829Z,51.30
2023-02-23T18:01:27.420Z,40.77
2023-02-23T18:06:30.707Z,65.23
2023-02-23T18:11:36.815Z,55.90
2023-02-23T18:16:39.459Z,58.30
2023-02-23T18:21:42.159Z,66.27
2023-02-23T18:26:44.873Z,64.20
2023-02-23T18:31:49.782Z,59.30
2023-02-23T18:36:52.485Z,53.87
2023-02-23T18:41:55.001Z,66.30
2023-02-23T18:46:57.629Z,87.20
2023-02-23T18:52:00.257Z,91.20
2023-02-23T18:57:02.870Z,79.10
2023-02-23T19:02:05.425Z,86.93
2023-02-23T19:07:07.869Z,88.33
2023-02-23T19:12:11.933Z,98.97
2023-02-23T19:17:14.633Z,92.23
2023-02-23T19:22:17.566Z,110.73
2023-02-23T19:27:20.144Z,106.10
2023-02-23T19:32:22.836Z,99.40
2023-02-23T19:37:25.454Z,71.93
2023-02-23T19:42:28.034Z,49.30
2023-02-23T19:47:30.542Z,59.80
2023-02-23T19:52:34.795Z,92.60
2023-02-23T19:57:37.547Z,85.10
2023-02-23T20:02:44.575Z,80.20
2023-02-23T20:07:48.413Z,85.87
2023-02-23T20:12:53.193Z,91.60
2023-02-23T20:17:55.772Z,80.80
2023-02-23T20:22:58.387Z,83.30
2023-02-23T20:28:01.072Z,85.80
2023-02-23T20:33:10.731Z,64.83
2023-02-23T20:38:15.366Z,53.70
2023-02-23T20:43:18.631Z,59.73
2023-02-23T20:48:21.300Z,57.00
2023-02-23T20:53:25.769Z,68.97
2023-02-23T20:58:28.520Z,54.97
2023-02-23T21:03:31.116Z,61.67
2023-02-23T21:08:33.647Z,70.27
2023-02-23T21:13:36.698Z,54.30
2023-02-23T21:18:39.346Z,83.77
2023-02-23T21:23:45.203Z,58.37
2023-02-23T21:28:48.435Z,66.37
2023-02-23T21:33:51.081Z,70.23
2023-02-23T21:38:53.612Z,69.00
2023-02-23T21:43:56.232Z,53.07
2023-02-23T21:48:59.086Z,66.20
2023-02-23T21:54:01.598Z,59.63
2023-02-23T21:59:05.980Z,62.43
2023-02-23T22:04:11.122Z,51.90
2023-02-23T22:09:16.693Z,57.53
2023-02-23T22:14:19.274Z,55.40
2023-02-23T22:19:21.910Z,49.33
2023-02-23T22:24:24.497Z,54.73
2023-02-23T22:29:27.432Z,39.70
2023-02-23T22:34:29.921Z,46.90
2023-02-23T22:39:33.426Z,52.90
2023-02-23T22:44:39.006Z,43.53
2023-02-23T22:49:41.454Z,44.53
2023-02-23T22:54:46.209Z,50.73
2023-02-23T23:00:00.097Z,36.40
2023-02-23T23:05:04.216Z,39.23
2023-02-23T23:10:09.314Z,33.63
2023-02-23T23:15:15.136Z,38.43
2023-02-23T23:20:25.653Z,33.23
2023-02-23T23:25:29.687Z,46.07
2023-02-23T23:30:35.290Z,34.53
2023-02-23T23:35:38.275Z,41.67
2023-02-23T23:40:47.031Z,41.60
2023-02-23T23:45:51.783Z,34.73
2023-02-23T23:50:56.253Z,26.70
2023-02-23T23:56:05.404Z,31.87
